createdAt,value
2023-05-18T00:00:39.864Z,75.96
2023-05-18T00:01:44.141Z,75.98
2023-05-18T00:02:48.715Z,75.89
2023-05-18T00:03:52.855Z,75.84
2023-05-18T00:04:57.020Z,75.80
2023-05-18T00:06:01.181Z,75.75
2023-05-18T00:07:05.492Z,75.75
2023-05-18T00:08:10.068Z,75.77
2023-05-18T00:09:14.028Z,75.78
2023-05-18T00:10:18.349Z,75.83
2023-05-18T00:11:22.492Z,75.87
2023-05-18T00:12:26.902Z,75.91
2023-05-18T00:13:31.127Z,75.86
2023-05-18T00:14:35.470Z,75.83
2023-05-18T00:15:39.664Z,75.84
2023-05-18T00:16:43.979Z,75.77
2023-05-18T00:17:48.187Z,75.75
2023-05-18T00:18:52.415Z,75.72
2023-05-18T00:19:56.676Z,75.72
2023-05-18T00:21:00.811Z,75.72
2023-05-18T00:22:05.130Z,75.74
2023-05-18T00:23:09.349Z,75.71
2023-05-18T00:24:13.676Z,75.77
2023-05-18T00:25:17.923Z,75.60
2023-05-18T00:26:22.161Z,75.61
2023-05-18T00:27:26.426Z,75.61
2023-05-18T00:28:30.680Z,75.59
2023-05-18T00:29:35.015Z,75.58
2023-05-18T00:30:39.334Z,75.57
2023-05-18T00:31:43.581Z,75.54
2023-05-18T00:32:47.942Z,75.52
2023-05-18T00:33:52.058Z,75.50
2023-05-18T00:34:56.391Z,75.48
2023-05-18T00:36:00.610Z,75.48
2023-05-18T00:37:04.891Z,75.50
2023-05-18T00:38:09.131Z,75.50
2023-05-18T00:39:13.391Z,75.52
2023-05-18T00:40:17.609Z,75.54
2023-05-18T00:41:21.792Z,75.58
2023-05-18T00:42:26.059Z,75.60
2023-05-18T00:43:30.406Z,75.63
2023-05-18T00:44:34.705Z,75.63
2023-05-18T00:45:38.974Z,75.67
2023-05-18T00:46:43.101Z,75.75
2023-05-18T00:47:47.448Z,75.81
2023-05-18T00:48:51.589Z,76.04
2023-05-18T00:49:55.810Z,76.12
2023-05-18T00:51:00.115Z,76.20
2023-05-18T00:52:04.327Z,76.36
2023-05-18T00:53:08.663Z,76.43
2023-05-18T00:54:12.993Z,76.49
2023-05-18T00:55:17.148Z,76.56
2023-05-18T00:56:21.385Z,76.56
2023-05-18T00:57:25.619Z,76.58
2023-05-18T00:58:29.853Z,76.57
2023-05-18T00:59:34.123Z,76.64
2023-05-18T01:00:38.359Z,76.75
2023-05-18T01:01:42.602Z,76.83
2023-05-18T01:02:47.001Z,76.83
2023-05-18T01:03:51.190Z,76.83
2023-05-18T01:04:55.363Z,76.89
2023-05-18T01:05:59.701Z,76.91
2023-05-18T01:07:03.877Z,76.89
2023-05-18T01:08:08.152Z,77.00
2023-05-18T01:09:12.484Z,77.19
2023-05-18T01:10:16.704Z,77.33
2023-05-18T01:11:21.046Z,77.47
2023-05-18T01:12:25.181Z,77.59
2023-05-18T01:13:29.542Z,77.71
2023-05-18T01:14:33.722Z,77.85
2023-05-18T01:15:37.889Z,77.93
2023-05-18T01:16:42.295Z,78.02
2023-05-18T01:17:46.471Z,77.95
2023-05-18T01:18:50.776Z,77.87
2023-05-18T01:19:54.990Z,77.85
2023-05-18T01:20:59.273Z,77.86
2023-05-18T01:22:03.471Z,77.99
2023-05-18T01:23:07.713Z,77.98
2023-05-18T01:24:12.069Z,77.89
2023-05-18T01:25:16.238Z,77.92
2023-05-18T01:26:20.580Z,77.99
2023-05-18T01:27:24.751Z,78.03
2023-05-18T01:28:28.954Z,78.01
2023-05-18T01:29:33.243Z,78.12
2023-05-18T01:30:37.487Z,78.16
2023-05-18T01:31:41.783Z,78.22
2023-05-18T01:32:45.973Z,78.30
2023-05-18T01:33:56.176Z,78.40
2023-05-18T01:34:59.092Z,78.53
2023-05-18T01:36:03.337Z,78.58
2023-05-18T01:37:07.495Z,78.62
2023-05-18T01:38:11.718Z,78.53
2023-05-18T01:39:15.934Z,78.44
2023-05-18T01:40:20.174Z,78.36
2023-05-18T01:41:24.537Z,78.31
2023-05-18T01:42:28.666Z,78.28
2023-05-18T01:43:32.996Z,78.19
2023-05-18T01:44:37.212Z,78.30
2023-05-18T01:45:41.519Z,78.35
2023-05-18T01:46:45.907Z,78.33
2023-05-18T01:47:50.139Z,78.39
2023-05-18T01:48:54.308Z,78.35
2023-05-18T01:49:58.590Z,78.47
2023-05-18T01:51:02.783Z,78.59
2023-05-18T01:52:06.983Z,78.66
2023-05-18T01:53:11.309Z,78.69
2023-05-18T01:54:15.476Z,78.64
2023-05-18T01:55:19.738Z,78.59
2023-05-18T01:56:30.037Z,78.57
2023-05-18T01:57:32.873Z,78.60
2023-05-18T01:58:37.186Z,78.62
2023-05-18T01:59:41.294Z,78.61
2023-05-18T02:00:45.514Z,78.59
2023-05-18T02:01:49.756Z,78.56
2023-05-18T02:02:53.996Z,78.61
2023-05-18T02:03:58.358Z,78.67
2023-05-18T02:05:02.483Z,78.70
2023-05-18T02:06:06.690Z,78.71
2023-05-18T02:07:11.077Z,78.74
2023-05-18T02:08:15.314Z,78.84
2023-05-18T02:09:19.596Z,78.86
2023-05-18T02:10:23.727Z,78.88
2023-05-18T02:11:27.979Z,78.92
2023-05-18T02:12:32.261Z,78.94
2023-05-18T02:13:36.449Z,78.97
2023-05-18T02:14:40.685Z,78.97
2023-05-18T02:15:45.012Z,79.02
2023-05-18T02:16:49.185Z,79.09
2023-05-18T02:17:53.583Z,79.05
2023-05-18T02:19:00.838Z,78.99
2023-05-18T02:20:04.084Z,78.99
2023-05-18T02:21:08.250Z,78.89
2023-05-18T02:22:12.475Z,78.92
2023-05-18T02:23:16.701Z,78.94
2023-05-18T02:24:20.928Z,78.97
2023-05-18T02:25:25.141Z,79.05
2023-05-18T02:26:29.420Z,79.08
2023-05-18T02:27:33.621Z,79.11
2023-05-18T02:28:37.792Z,79.20
2023-05-18T02:29:41.992Z,79.18
2023-05-18T02:30:46.181Z,79.11
2023-05-18T02:31:50.512Z,79.08
2023-05-18T02:32:54.763Z,79.05
2023-05-18T02:33:58.994Z,79.00
2023-05-18T02:35:03.180Z,78.99
2023-05-18T02:36:07.464Z,79.08
2023-05-18T02:37:11.706Z,79.03
2023-05-18T02:38:15.873Z,78.95
2023-05-18T02:39:20.049Z,78.96
2023-05-18T02:40:24.300Z,79.03
2023-05-18T02:41:28.496Z,79.10
2023-05-18T02:42:38.753Z,79.13
2023-05-18T02:43:41.749Z,79.22
2023-05-18T02:44:45.783Z,79.25
2023-05-18T02:45:50.142Z,79.29
2023-05-18T02:46:54.366Z,79.43
2023-05-18T02:47:58.624Z,79.34
2023-05-18T02:49:02.807Z,79.21
2023-05-18T02:50:07.093Z,79.23
2023-05-18T02:51:11.359Z,79.27
2023-05-18T02:52:15.633Z,79.41
2023-05-18T02:53:19.761Z,79.61
2023-05-18T02:54:24.000Z,79.79
2023-05-18T02:55:28.426Z,79.88
2023-05-18T02:56:32.529Z,79.91
2023-05-18T02:57:36.706Z,80.05
2023-05-18T02:58:41.006Z,80.19
2023-05-18T02:59:45.208Z,80.31
2023-05-18T03:00:49.485Z,80.46
2023-05-18T03:01:53.652Z,80.58
2023-05-18T03:02:58.093Z,80.71
2023-05-18T03:04:05.125Z,80.83
2023-05-18T03:05:08.492Z,80.85
2023-05-18T03:06:12.664Z,80.83
2023-05-18T03:07:16.968Z,80.82
2023-05-18T03:08:21.131Z,80.87
2023-05-18T03:09:25.403Z,80.94
2023-05-18T03:10:29.683Z,81.00
2023-05-18T03:11:34.004Z,81.11
2023-05-18T03:12:38.143Z,81.06
2023-05-18T03:13:42.455Z,81.00
2023-05-18T03:14:46.672Z,80.95
2023-05-18T03:15:51.016Z,81.00
2023-05-18T03:16:55.250Z,80.97
2023-05-18T03:17:59.595Z,80.94
2023-05-18T03:19:03.738Z,80.96
2023-05-18T03:20:07.909Z,80.90
2023-05-18T03:21:12.217Z,80.86
2023-05-18T03:22:16.489Z,80.81
2023-05-18T03:23:20.754Z,80.75
2023-05-18T03:24:24.933Z,80.73
2023-05-18T03:25:29.425Z,80.72
2023-05-18T03:26:33.516Z,80.67
2023-05-18T03:27:37.693Z,80.67
2023-05-18T03:28:42.028Z,80.75
2023-05-18T03:29:46.205Z,80.82
2023-05-18T03:30:50.428Z,80.67
2023-05-18T03:31:54.848Z,80.55
2023-05-18T03:32:58.888Z,80.57
2023-05-18T03:34:03.144Z,80.67
2023-05-18T03:35:07.441Z,80.80
2023-05-18T03:36:11.666Z,80.83
2023-05-18T03:37:15.819Z,80.88
2023-05-18T03:38:20.067Z,80.97
2023-05-18T03:39:24.264Z,81.05
2023-05-18T03:40:28.592Z,81.21
2023-05-18T03:41:32.760Z,81.27
2023-05-18T03:42:37.017Z,81.29
2023-05-18T03:43:41.287Z,81.16
2023-05-18T03:44:45.469Z,81.09
2023-05-18T03:45:49.769Z,81.05
2023-05-18T03:46:54.091Z,81.06
2023-05-18T03:47:58.388Z,81.14
2023-05-18T03:49:02.507Z,81.15
2023-05-18T03:50:06.693Z,81.08
2023-05-18T03:51:10.913Z,80.98
2023-05-18T03:52:15.234Z,80.90
2023-05-18T03:53:19.563Z,80.82
2023-05-18T03:54:23.631Z,80.70
2023-05-18T03:55:28.063Z,80.60
2023-05-18T03:56:32.196Z,80.51
2023-05-18T03:57:36.372Z,80.42
2023-05-18T03:58:40.622Z,80.29
2023-05-18T03:59:45.001Z,80.21
2023-05-18T04:00:49.181Z,80.10
2023-05-18T04:01:53.419Z,80.03
2023-05-18T04:03:00.859Z,79.97
2023-05-18T04:04:04.115Z,79.96
2023-05-18T04:05:08.211Z,79.93
2023-05-18T04:06:12.435Z,79.91
2023-05-18T04:07:16.814Z,79.88
2023-05-18T04:08:21.020Z,79.86
2023-05-18T04:09:25.368Z,79.89
2023-05-18T04:10:29.558Z,80.04
2023-05-18T04:11:33.848Z,80.14
2023-05-18T04:12:37.901Z,80.22
2023-05-18T04:13:42.214Z,80.34
2023-05-18T04:14:46.502Z,80.48
2023-05-18T04:15:50.748Z,80.63
2023-05-18T04:16:54.988Z,80.82
2023-05-18T04:17:59.238Z,80.97
2023-05-18T04:19:05.005Z,81.10
2023-05-18T04:20:07.811Z,81.23
2023-05-18T04:21:11.948Z,81.46
2023-05-18T04:22:16.315Z,81.60
2023-05-18T04:23:20.569Z,81.78
2023-05-18T04:24:24.705Z,81.94
2023-05-18T04:25:29.145Z,82.09
2023-05-18T04:26:33.151Z,82.29
2023-05-18T04:27:37.390Z,82.57
2023-05-18T04:28:41.598Z,82.73
2023-05-18T04:29:45.772Z,82.95
2023-05-18T04:30:50.049Z,83.17
2023-05-18T04:31:54.323Z,83.33
2023-05-18T04:32:58.783Z,83.42
2023-05-18T04:34:02.775Z,83.52
2023-05-18T04:35:07.169Z,83.59
2023-05-18T04:36:11.320Z,83.64
2023-05-18T04:37:15.535Z,83.56
2023-05-18T04:38:19.842Z,83.65
2023-05-18T04:39:24.059Z,83.67
2023-05-18T04:40:28.303Z,83.79
2023-05-18T04:41:32.547Z,83.88
2023-05-18T04:42:36.739Z,84.03
2023-05-18T04:43:41.002Z,84.13
2023-05-18T04:44:45.264Z,84.17
2023-05-18T04:45:49.462Z,84.27
2023-05-18T04:46:53.679Z,84.24
2023-05-18T04:47:57.921Z,84.31
2023-05-18T04:49:02.167Z,84.27
2023-05-18T04:50:06.383Z,84.16
2023-05-18T04:51:10.649Z,84.20
2023-05-18T04:52:14.865Z,84.25
2023-05-18T04:53:19.126Z,84.33
2023-05-18T04:54:23.318Z,84.51
2023-05-18T04:55:28.707Z,84.65
2023-05-18T04:56:31.826Z,84.84
2023-05-18T04:57:36.130Z,85.12
2023-05-18T04:58:43.426Z,85.38
2023-05-18T04:59:46.718Z,85.58
2023-05-18T05:00:51.010Z,85.60
2023-05-18T05:01:55.298Z,85.45
2023-05-18T05:02:59.768Z,85.42
2023-05-18T05:04:03.763Z,85.29
2023-05-18T05:05:08.042Z,85.05
2023-05-18T05:06:12.238Z,84.98
2023-05-18T05:07:16.603Z,84.77
2023-05-18T05:08:20.750Z,84.79
2023-05-18T05:09:25.003Z,84.73
2023-05-18T05:10:29.311Z,84.55
2023-05-18T05:11:33.539Z,84.34
2023-05-18T05:12:37.777Z,84.14
2023-05-18T05:13:42.150Z,83.93
2023-05-18T05:14:46.425Z,83.74
2023-05-18T05:15:50.724Z,83.56
2023-05-18T05:16:54.955Z,83.41
2023-05-18T05:17:59.239Z,83.25
2023-05-18T05:19:03.538Z,83.06
2023-05-18T05:20:07.749Z,82.98
2023-05-18T05:21:12.091Z,82.84
2023-05-18T05:22:16.386Z,82.69
2023-05-18T05:23:20.606Z,82.56
2023-05-18T05:24:24.850Z,82.43
2023-05-18T05:25:29.440Z,82.34
2023-05-18T05:26:33.369Z,82.25
2023-05-18T05:27:37.766Z,82.19
2023-05-18T05:28:42.077Z,82.19
2023-05-18T05:29:46.381Z,82.29
2023-05-18T05:30:50.601Z,82.35
2023-05-18T05:31:55.011Z,82.37
2023-05-18T05:32:59.281Z,82.46
2023-05-18T05:34:03.430Z,82.48
2023-05-18T05:35:07.667Z,82.45
2023-05-18T05:36:11.908Z,82.38
2023-05-18T05:37:16.177Z,82.32
2023-05-18T05:38:20.496Z,82.34
2023-05-18T05:39:24.761Z,82.36
2023-05-18T05:40:28.976Z,82.45
2023-05-18T05:41:33.263Z,82.25
2023-05-18T05:42:37.541Z,82.20
2023-05-18T05:43:41.780Z,82.17
2023-05-18T05:44:46.053Z,82.21
2023-05-18T05:45:50.332Z,82.48
2023-05-18T05:46:54.679Z,82.56
2023-05-18T05:47:59.002Z,82.54
2023-05-18T05:49:03.258Z,82.53
2023-05-18T05:50:07.525Z,82.53
2023-05-18T05:51:11.871Z,82.48
2023-05-18T05:52:16.175Z,82.46
2023-05-18T05:53:20.513Z,82.54
2023-05-18T05:54:24.748Z,82.57
2023-05-18T05:55:29.291Z,82.72
2023-05-18T05:56:33.351Z,82.74
2023-05-18T05:57:37.640Z,82.72
2023-05-18T05:58:41.951Z,82.72
2023-05-18T05:59:46.293Z,82.71
2023-05-18T06:00:50.486Z,82.68
2023-05-18T06:01:54.778Z,82.57
2023-05-18T06:02:59.128Z,82.56
2023-05-18T06:04:03.451Z,82.45
2023-05-18T06:05:07.726Z,82.33
2023-05-18T06:06:11.969Z,82.18
2023-05-18T06:07:16.348Z,81.99
2023-05-18T06:08:20.686Z,81.84
2023-05-18T06:09:25.021Z,81.62
2023-05-18T06:10:29.266Z,81.51
2023-05-18T06:11:33.588Z,81.38
2023-05-18T06:12:37.950Z,81.23
2023-05-18T06:13:42.265Z,81.08
2023-05-18T06:14:46.602Z,80.88
2023-05-18T06:15:50.851Z,80.72
2023-05-18T06:16:55.269Z,80.59
2023-05-18T06:17:59.373Z,80.47
2023-05-18T06:19:03.793Z,80.40
2023-05-18T06:20:07.995Z,80.30
2023-05-18T06:21:12.316Z,80.27
2023-05-18T06:22:16.669Z,80.29
2023-05-18T06:23:21.027Z,80.30
2023-05-18T06:24:25.374Z,80.28
2023-05-18T06:25:29.965Z,80.25
2023-05-18T06:26:33.999Z,80.22
2023-05-18T06:27:38.441Z,80.04
2023-05-18T06:28:42.618Z,79.93
2023-05-18T06:29:46.898Z,79.83
2023-05-18T06:30:51.211Z,79.78
2023-05-18T06:31:55.621Z,79.77
2023-05-18T06:33:00.003Z,79.57
2023-05-18T06:34:04.282Z,78.98
2023-05-18T06:35:08.587Z,78.46
2023-05-18T06:36:12.963Z,78.53
2023-05-18T06:37:17.246Z,78.53
2023-05-18T06:38:21.523Z,77.81
2023-05-18T06:39:25.814Z,77.65
2023-05-18T06:40:30.202Z,77.58
2023-05-18T06:41:34.513Z,77.28
2023-05-18T06:42:38.876Z,77.65
2023-05-18T06:43:43.355Z,78.05
2023-05-18T06:44:47.530Z,78.29
2023-05-18T06:45:52.039Z,78.38
2023-05-18T06:46:56.220Z,77.46
2023-05-18T06:48:00.782Z,76.41
2023-05-18T06:49:05.048Z,75.82
2023-05-18T06:50:09.286Z,76.01
2023-05-18T06:51:16.597Z,76.35
2023-05-18T06:52:20.099Z,76.22
2023-05-18T06:53:24.478Z,76.54
2023-05-18T06:54:28.757Z,76.26
2023-05-18T06:55:47.173Z,75.33
2023-05-18T06:56:50.417Z,74.42
2023-05-18T06:57:54.695Z,74.11
2023-05-18T06:59:00.469Z,74.09
2023-05-18T07:00:03.271Z,74.14
2023-05-18T07:01:07.674Z,74.08
2023-05-18T07:02:11.946Z,73.60
2023-05-18T07:03:16.517Z,73.57
2023-05-18T07:04:20.654Z,73.65
2023-05-18T07:05:24.971Z,73.19
2023-05-18T07:06:29.290Z,72.68
2023-05-18T07:07:33.706Z,72.87
2023-05-18T07:08:37.772Z,73.31
2023-05-18T07:09:42.223Z,72.95
2023-05-18T07:10:46.544Z,72.98
2023-05-18T07:11:50.864Z,72.96
2023-05-18T07:12:55.172Z,73.29
2023-05-18T07:13:59.408Z,73.76
2023-05-18T07:15:03.700Z,74.04
2023-05-18T07:16:08.157Z,74.25
2023-05-18T07:17:12.288Z,73.44
2023-05-18T07:18:16.670Z,72.75
2023-05-18T07:19:21.156Z,72.94
2023-05-18T07:20:26.429Z,73.11
2023-05-18T07:21:29.562Z,73.20
2023-05-18T07:22:33.906Z,73.19
2023-05-18T07:23:38.331Z,73.11
2023-05-18T07:24:42.672Z,72.44
2023-05-18T07:25:46.947Z,72.11
2023-05-18T07:26:51.300Z,72.35
2023-05-18T07:27:55.653Z,72.58
2023-05-18T07:28:59.864Z,72.53
2023-05-18T07:30:04.247Z,72.53
2023-05-18T07:31:08.673Z,72.32
2023-05-18T07:32:12.829Z,72.47
2023-05-18T07:33:17.198Z,72.82
2023-05-18T07:34:24.529Z,73.09
2023-05-18T07:35:27.939Z,73.35
2023-05-18T07:36:32.213Z,73.71
2023-05-18T07:37:36.552Z,74.05
2023-05-18T07:38:40.784Z,74.18
2023-05-18T07:39:45.150Z,74.26
2023-05-18T07:40:49.488Z,74.22
2023-05-18T07:41:53.793Z,74.11
2023-05-18T07:42:58.061Z,74.20
2023-05-18T07:44:02.444Z,74.22
2023-05-18T07:45:06.744Z,74.22
2023-05-18T07:46:11.132Z,74.17
2023-05-18T07:47:15.423Z,74.08
2023-05-18T07:48:19.720Z,74.11
2023-05-18T07:49:24.073Z,74.17
2023-05-18T07:50:28.379Z,74.16
2023-05-18T07:51:46.749Z,74.13
2023-05-18T07:52:50.109Z,74.07
2023-05-18T07:53:54.365Z,74.03
2023-05-18T07:54:58.657Z,73.87
2023-05-18T07:56:02.955Z,73.55
2023-05-18T07:57:07.227Z,73.49
2023-05-18T07:58:11.631Z,73.44
2023-05-18T07:59:15.880Z,73.14
2023-05-18T08:00:20.268Z,72.56
2023-05-18T08:01:24.705Z,72.58
2023-05-18T08:02:30.261Z,72.66
2023-05-18T08:03:33.300Z,72.52
2023-05-18T08:04:37.570Z,72.38
2023-05-18T08:05:41.943Z,72.31
2023-05-18T08:06:46.282Z,71.97
2023-05-18T08:07:50.630Z,71.35
2023-05-18T08:08:54.991Z,71.11
2023-05-18T08:09:59.307Z,71.50
2023-05-18T08:11:03.602Z,71.96
2023-05-18T08:12:07.927Z,72.31
2023-05-18T08:13:12.254Z,72.16
2023-05-18T08:14:16.618Z,72.25
2023-05-18T08:15:20.951Z,72.30
2023-05-18T08:16:28.383Z,72.28
2023-05-18T08:17:31.797Z,71.92
2023-05-18T08:18:36.118Z,71.09
2023-05-18T08:19:41.917Z,70.68
2023-05-18T08:20:44.661Z,70.89
2023-05-18T08:21:49.045Z,70.63
2023-05-18T08:22:53.404Z,70.81
2023-05-18T08:23:57.675Z,71.11
2023-05-18T08:25:02.043Z,71.42
2023-05-18T08:26:06.378Z,71.76
2023-05-18T08:27:10.690Z,72.01
2023-05-18T08:28:14.998Z,72.17
2023-05-18T08:29:19.376Z,72.07
2023-05-18T08:30:23.756Z,71.77
2023-05-18T08:31:28.006Z,71.68
2023-05-18T08:32:32.443Z,71.76
2023-05-18T08:33:36.668Z,71.74
2023-05-18T08:34:46.965Z,71.91
2023-05-18T08:35:49.839Z,72.03
2023-05-18T08:36:54.202Z,72.20
2023-05-18T08:37:58.530Z,72.30
2023-05-18T08:39:02.790Z,72.08
2023-05-18T08:40:07.066Z,72.19
2023-05-18T08:41:11.434Z,72.23
2023-05-18T08:42:15.701Z,71.99
2023-05-18T08:43:20.027Z,71.52
2023-05-18T08:44:24.399Z,71.25
2023-05-18T08:45:29.039Z,70.97
2023-05-18T08:46:33.052Z,71.06
2023-05-18T08:47:37.463Z,71.13
2023-05-18T08:48:41.752Z,71.47
2023-05-18T08:49:46.071Z,71.81
2023-05-18T08:50:50.321Z,72.06
2023-05-18T08:51:54.617Z,72.13
2023-05-18T08:52:58.927Z,72.02
2023-05-18T08:54:03.303Z,72.18
2023-05-18T08:55:10.144Z,71.81
2023-05-18T08:56:11.983Z,71.51
2023-05-18T08:57:16.348Z,71.49
2023-05-18T08:58:20.604Z,71.60
2023-05-18T08:59:24.941Z,71.74
2023-05-18T09:00:29.628Z,71.70
2023-05-18T09:01:33.650Z,71.68
2023-05-18T09:02:37.998Z,71.71
2023-05-18T09:03:42.485Z,71.63
2023-05-18T09:04:46.648Z,71.31
2023-05-18T09:05:50.981Z,71.22
2023-05-18T09:06:55.331Z,71.17
2023-05-18T09:07:59.526Z,71.11
2023-05-18T09:09:03.839Z,70.69
2023-05-18T09:10:08.219Z,69.80
2023-05-18T09:11:12.571Z,69.16
2023-05-18T09:12:16.811Z,69.52
2023-05-18T09:13:21.136Z,69.85
2023-05-18T09:14:25.520Z,70.29
2023-05-18T09:15:29.976Z,70.43
2023-05-18T09:16:34.108Z,70.63
2023-05-18T09:17:38.445Z,70.86
2023-05-18T09:18:42.682Z,71.00
2023-05-18T09:19:46.994Z,71.10
2023-05-18T09:20:51.356Z,71.00
2023-05-18T09:21:55.717Z,70.61
2023-05-18T09:22:59.980Z,70.17
2023-05-18T09:24:04.275Z,69.67
2023-05-18T09:25:08.563Z,69.70
2023-05-18T09:26:12.922Z,69.86
2023-05-18T09:27:17.251Z,69.94
2023-05-18T09:28:21.503Z,70.17
2023-05-18T09:29:25.823Z,70.38
2023-05-18T09:30:30.120Z,70.28
2023-05-18T09:31:34.554Z,70.34
2023-05-18T09:32:38.898Z,70.61
2023-05-18T09:33:43.168Z,70.77
2023-05-18T09:34:47.412Z,70.77
2023-05-18T09:35:51.861Z,70.69
2023-05-18T09:36:56.070Z,70.65
2023-05-18T09:38:00.357Z,70.70
2023-05-18T09:39:04.721Z,70.49
2023-05-18T09:40:09.074Z,70.12
2023-05-18T09:41:13.401Z,70.01
2023-05-18T09:42:17.674Z,69.93
2023-05-18T09:43:22.032Z,69.83
2023-05-18T09:44:26.269Z,70.07
2023-05-18T09:45:33.748Z,70.00
2023-05-18T09:46:37.184Z,70.03
2023-05-18T09:47:41.416Z,69.69
2023-05-18T09:48:45.694Z,69.34
2023-05-18T09:49:50.027Z,69.66
2023-05-18T09:50:54.419Z,69.69
2023-05-18T09:51:58.682Z,69.85
2023-05-18T09:53:03.115Z,69.56
2023-05-18T09:54:07.476Z,69.20
2023-05-18T09:55:11.783Z,69.46
2023-05-18T09:56:16.136Z,69.50
2023-05-18T09:57:20.489Z,69.49
2023-05-18T09:58:24.960Z,69.27
2023-05-18T09:59:29.181Z,69.38
2023-05-18T10:00:33.661Z,69.53
2023-05-18T10:01:37.860Z,69.23
2023-05-18T10:02:42.119Z,68.96
2023-05-18T10:03:46.552Z,69.03
2023-05-18T10:04:50.982Z,69.24
2023-05-18T10:05:55.133Z,69.27
2023-05-18T10:06:59.523Z,69.22
2023-05-18T10:08:03.792Z,69.31
2023-05-18T10:09:08.160Z,68.78
2023-05-18T10:10:15.457Z,68.65
2023-05-18T10:11:18.960Z,68.34
2023-05-18T10:12:23.179Z,68.36
2023-05-18T10:13:27.524Z,68.31
2023-05-18T10:14:31.903Z,65.21
2023-05-18T10:15:36.188Z,64.51
2023-05-18T10:16:40.615Z,63.19
2023-05-18T10:17:44.870Z,62.79
2023-05-18T10:18:49.085Z,63.59
2023-05-18T10:19:53.440Z,63.80
2023-05-18T10:20:59.290Z,63.75
2023-05-18T10:22:02.095Z,64.50
2023-05-18T10:23:06.367Z,64.54
2023-05-18T10:24:10.724Z,63.17
2023-05-18T10:25:15.071Z,63.78
2023-05-18T10:26:19.452Z,64.26
2023-05-18T10:27:23.811Z,63.14
2023-05-18T10:28:28.086Z,63.49
2023-05-18T10:29:32.362Z,64.29
2023-05-18T10:30:36.816Z,64.77
2023-05-18T10:31:41.120Z,64.61
2023-05-18T10:32:45.480Z,64.41
2023-05-18T10:33:49.727Z,64.37
2023-05-18T10:34:54.137Z,64.15
2023-05-18T10:35:58.305Z,64.46
2023-05-18T10:37:02.721Z,64.95
2023-05-18T10:38:07.141Z,65.11
2023-05-18T10:39:11.460Z,65.30
2023-05-18T10:40:15.720Z,64.95
2023-05-18T10:41:20.001Z,64.99
2023-05-18T10:42:24.414Z,65.21
2023-05-18T10:43:28.692Z,65.47
2023-05-18T10:44:33.033Z,65.70
2023-05-18T10:45:37.355Z,65.78
2023-05-18T10:46:41.812Z,65.95
2023-05-18T10:47:46.258Z,65.99
2023-05-18T10:48:50.406Z,66.06
2023-05-18T10:49:54.779Z,66.14
2023-05-18T10:50:59.085Z,66.00
2023-05-18T10:52:09.396Z,65.88
2023-05-18T10:53:12.448Z,65.37
2023-05-18T10:54:16.579Z,65.55
2023-05-18T10:55:21.063Z,65.70
2023-05-18T10:56:25.409Z,65.79
2023-05-18T10:57:29.719Z,66.01
2023-05-18T10:58:34.173Z,65.94
2023-05-18T10:59:38.539Z,66.07
2023-05-18T11:00:42.891Z,65.42
2023-05-18T11:01:47.292Z,65.35
2023-05-18T11:02:51.608Z,65.74
2023-05-18T11:03:55.837Z,66.05
2023-05-18T11:05:00.310Z,66.11
2023-05-18T11:06:04.578Z,66.27
2023-05-18T11:07:09.045Z,66.30
2023-05-18T11:08:13.459Z,65.36
2023-05-18T11:09:17.859Z,64.19
2023-05-18T11:10:22.096Z,63.61
2023-05-18T11:11:26.523Z,62.56
2023-05-18T11:12:30.832Z,63.23
2023-05-18T11:13:35.204Z,62.86
2023-05-18T11:14:39.560Z,62.42
2023-05-18T11:15:47.027Z,63.38
2023-05-18T11:16:50.618Z,63.28
2023-05-18T11:17:54.903Z,62.01
2023-05-18T11:18:59.234Z,61.20
2023-05-18T11:20:03.628Z,61.25
2023-05-18T11:21:08.025Z,61.66
2023-05-18T11:22:12.306Z,61.69
2023-05-18T11:23:16.722Z,61.61
2023-05-18T11:24:21.179Z,62.68
2023-05-18T11:25:25.398Z,63.14
2023-05-18T11:26:29.789Z,63.53
2023-05-18T11:27:34.222Z,63.91
2023-05-18T11:28:38.418Z,64.12
2023-05-18T11:29:42.826Z,63.98
2023-05-18T11:30:47.187Z,63.87
2023-05-18T11:31:51.500Z,63.80
2023-05-18T11:32:55.862Z,63.57
2023-05-18T11:34:00.164Z,63.73
2023-05-18T11:35:04.494Z,64.12
2023-05-18T11:36:08.772Z,64.30
2023-05-18T11:37:13.273Z,64.22
2023-05-18T11:38:17.493Z,63.74
2023-05-18T11:39:21.866Z,64.14
2023-05-18T11:40:26.233Z,64.69
2023-05-18T11:41:30.588Z,64.73
2023-05-18T11:42:34.997Z,64.78
2023-05-18T11:43:39.312Z,64.26
2023-05-18T11:44:43.714Z,64.12
2023-05-18T11:45:48.072Z,64.31
2023-05-18T11:46:52.331Z,64.17
2023-05-18T11:47:56.878Z,63.22
2023-05-18T11:49:01.095Z,63.30
2023-05-18T11:50:05.488Z,62.58
2023-05-18T11:51:09.869Z,60.31
2023-05-18T11:52:14.266Z,60.05
2023-05-18T11:53:18.721Z,59.91
2023-05-18T11:54:22.990Z,59.86
2023-05-18T11:55:27.464Z,60.88
2023-05-18T11:56:31.804Z,61.71
2023-05-18T11:57:36.319Z,62.05
2023-05-18T11:58:40.679Z,61.98
2023-05-18T11:59:45.017Z,59.51
2023-05-18T12:00:49.481Z,57.88
2023-05-18T12:01:53.799Z,56.57
2023-05-18T12:02:58.228Z,56.89
2023-05-18T12:04:02.745Z,56.19
2023-05-18T12:05:06.987Z,55.52
2023-05-18T12:06:11.278Z,55.86
2023-05-18T12:07:15.640Z,56.46
2023-05-18T12:08:20.109Z,57.95
2023-05-18T12:09:24.444Z,58.94
2023-05-18T12:10:28.826Z,59.31
2023-05-18T12:11:33.181Z,58.16
2023-05-18T12:12:37.541Z,57.36
2023-05-18T12:13:41.995Z,57.97
2023-05-18T12:14:46.308Z,58.34
2023-05-18T12:15:50.608Z,58.86
2023-05-18T12:16:55.032Z,58.32
2023-05-18T12:17:59.495Z,57.95
2023-05-18T12:19:03.807Z,57.78
2023-05-18T12:20:08.121Z,57.60
2023-05-18T12:21:12.566Z,56.68
2023-05-18T12:22:16.956Z,57.40
2023-05-18T12:23:21.288Z,58.48
2023-05-18T12:24:25.659Z,58.31
2023-05-18T12:25:30.395Z,58.07
2023-05-18T12:26:34.393Z,58.69
2023-05-18T12:27:38.789Z,59.10
2023-05-18T12:28:43.189Z,56.70
2023-05-18T12:30:01.674Z,56.72
2023-05-18T12:31:05.120Z,57.67
2023-05-18T12:32:09.434Z,57.64
2023-05-18T12:33:13.807Z,56.30
2023-05-18T12:34:18.180Z,55.14
2023-05-18T12:35:22.530Z,53.46
2023-05-18T12:36:26.906Z,52.88
2023-05-18T12:37:44.133Z,54.29
2023-05-18T12:38:35.634Z,55.77
2023-05-18T12:39:40.088Z,55.95
2023-05-18T12:40:58.433Z,56.04
2023-05-18T12:42:01.643Z,56.71
2023-05-18T12:43:05.938Z,57.26
2023-05-18T12:44:10.426Z,56.79
2023-05-18T12:45:14.712Z,57.11
2023-05-18T12:46:19.229Z,57.27
2023-05-18T12:47:23.644Z,56.48
2023-05-18T12:48:27.916Z,55.63
2023-05-18T12:49:32.349Z,54.61
2023-05-18T12:50:36.667Z,53.92
2023-05-18T12:51:41.194Z,53.35
2023-05-18T12:52:45.472Z,53.69
2023-05-18T12:53:49.920Z,53.54
2023-05-18T12:54:54.260Z,53.87
2023-05-18T12:55:58.613Z,53.90
2023-05-18T12:57:03.085Z,53.88
2023-05-18T12:58:07.474Z,53.72
2023-05-18T12:59:11.759Z,54.06
2023-05-18T13:00:16.328Z,53.83
2023-05-18T13:01:20.592Z,53.80
2023-05-18T13:02:25.176Z,53.77
2023-05-18T13:03:29.520Z,53.69
2023-05-18T13:04:33.873Z,54.08
2023-05-18T13:05:38.259Z,55.15
2023-05-18T13:06:42.630Z,55.00
2023-05-18T13:07:46.914Z,55.22
2023-05-18T13:08:51.325Z,54.56
2023-05-18T13:09:55.741Z,55.34
2023-05-18T13:11:12.030Z,55.67
2023-05-18T13:12:07.890Z,56.00
2023-05-18T13:13:08.760Z,56.44
2023-05-18T13:14:13.215Z,56.29
2023-05-18T13:15:17.594Z,56.44
2023-05-18T13:16:22.012Z,56.38
2023-05-18T13:17:26.373Z,56.40
2023-05-18T13:18:30.728Z,55.59
2023-05-18T13:19:35.123Z,55.48
2023-05-18T13:20:39.542Z,55.66
2023-05-18T13:21:43.802Z,56.18
2023-05-18T13:22:48.207Z,56.75
2023-05-18T13:23:52.615Z,57.47
2023-05-18T13:24:57.063Z,57.97
2023-05-18T13:26:01.487Z,58.00
2023-05-18T13:27:05.828Z,58.11
2023-05-18T13:28:10.153Z,58.16
2023-05-18T13:29:14.494Z,58.05
2023-05-18T13:30:18.880Z,58.24
2023-05-18T13:31:23.392Z,58.58
2023-05-18T13:32:27.745Z,58.58
2023-05-18T13:33:32.071Z,58.54
2023-05-18T13:34:36.368Z,58.61
2023-05-18T13:35:40.852Z,58.39
2023-05-18T13:36:45.143Z,58.95
2023-05-18T13:37:49.457Z,58.47
2023-05-18T13:38:53.873Z,58.07
2023-05-18T13:39:58.202Z,58.40
2023-05-18T13:41:02.634Z,58.08
2023-05-18T13:42:07.050Z,57.89
2023-05-18T13:43:13.782Z,57.85
2023-05-18T13:44:15.816Z,57.79
2023-05-18T13:45:20.086Z,57.69
2023-05-18T13:46:24.498Z,58.03
2023-05-18T13:47:28.794Z,57.36
2023-05-18T13:48:33.145Z,57.65
2023-05-18T13:49:37.616Z,57.30